Time;durP1;ratioP1;P1;durP2;ratioP2;P2;SDS_P1;SDS_P2;PMS_P1;PMS_P2;Temp;Humidity;BMP_temperature;BMP_pressure;BME280_temperature;BME280_humidity;BME280_pressure;Samples;Min_cycle;Max_cycle;Signal;HPM_P1;HPM_P2
2021/09/16 00:01:01;;;;;;;5.35;1.90;;;17.20;99.90;;;;;;5011684;28;20112;-61
2021/09/16 00:03:27;;;;;;;15.30;1.95;;;17.10;99.90;;;;;;5011413;28;20481;-57
2021/09/16 00:05:53;;;;;;;12.43;3.03;;;17.10;99.90;;;;;;5011315;28;20026;-57
2021/09/16 00:08:18;;;;;;;14.48;3.22;;;17.10;99.90;;;;;;5011936;28;20034;-58
2021/09/16 00:10:44;;;;;;;7.93;1.77;;;17.00;99.90;;;;;;5011398;28;20076;-60
2021/09/16 00:13:10;;;;;;;7.40;1.85;;;17.00;99.90;;;;;;5011395;28;20042;-59
2021/09/16 00:15:35;;;;;;;9.25;1.63;;;17.00;99.90;;;;;;5011318;28;20030;-59
2021/09/16 00:18:01;;;;;;;9.55;1.67;;;17.00;99.90;;;;;;5009997;28;20509;-59
2021/09/16 00:20:27;;;;;;;6.18;1.20;;;16.90;99.90;;;;;;5010959;28;20107;-58
2021/09/16 00:22:53;;;;;;;10.57;1.35;;;16.90;99.90;;;;;;5009417;28;20487;-58
2021/09/16 00:25:18;;;;;;;8.57;1.30;;;16.80;99.90;;;;;;5011383;28;20029;-59
2021/09/16 00:27:44;;;;;;;6.13;1.40;;;16.80;99.90;;;;;;5007729;28;20050;-57
2021/09/16 00:30:10;;;;;;;10.00;1.73;;;16.80;99.90;;;;;;5010955;28;20041;-58
2021/09/16 00:32:37;;;;;;;6.88;1.50;;;16.70;99.90;;;;;;5011300;28;20058;-58
2021/09/16 00:35:04;;;;;;;6.68;1.17;;;16.70;99.90;;;;;;5008347;28;20213;-59
2021/09/16 00:37:30;;;;;;;8.15;1.70;;;16.70;99.90;;;;;;5009670;28;20033;-59
2021/09/16 00:39:56;;;;;;;10.80;1.88;;;16.70;99.90;;;;;;5011170;28;20034;-59
2021/09/16 00:42:21;;;;;;;9.40;1.38;;;16.60;99.90;;;;;;5010919;28;20030;-58
2021/09/16 00:44:47;;;;;;;11.02;1.30;;;16.60;99.90;;;;;;5010959;28;20499;-59
2021/09/16 00:47:14;;;;;;;5.03;1.40;;;16.60;99.90;;;;;;5010487;28;20109;-59
2021/09/16 00:49:40;;;;;;;8.05;1.75;;;16.50;99.90;;;;;;5011108;28;20054;-61
2021/09/16 00:52:07;;;;;;;3.15;1.20;;;16.50;99.90;;;;;;5011125;28;20441;-59
2021/09/16 00:54:34;;;;;;;9.88;1.23;;;16.50;99.90;;;;;;5010995;28;20022;-58
2021/09/16 00:57:01;;;;;;;4.32;1.17;;;16.50;99.90;;;;;;5004617;28;20741;-61
2021/09/16 00:59:28;;;;;;;3.90;1.13;;;16.40;99.90;;;;;;5011145;28;20026;-60
2021/09/16 01:01:54;;;;;;;3.78;1.13;;;16.30;99.90;;;;;;5011170;28;20022;-59
2021/09/16 01:04:19;;;;;;;5.60;1.23;;;16.20;99.90;;;;;;5010513;28;20033;-59
2021/09/16 01:06:45;;;;;;;8.55;1.58;;;16.20;99.90;;;;;;5010711;28;20073;-61
2021/09/16 01:09:11;;;;;;;7.03;1.08;;;16.20;99.90;;;;;;5006938;28;20489;-59
2021/09/16 01:11:37;;;;;;;10.73;1.17;;;16.20;99.90;;;;;;5010770;28;20028;-56
2021/09/16 01:14:03;;;;;;;6.53;1.20;;;16.10;99.90;;;;;;5011289;28;20481;-58
2021/09/16 01:16:28;;;;;;;11.85;1.40;;;16.10;99.90;;;;;;5010754;28;20022;-58
2021/09/16 01:18:54;;;;;;;4.80;1.33;;;16.10;99.90;;;;;;5010625;28;20053;-59
2021/09/16 01:21:21;;;;;;;9.50;1.77;;;16.10;99.90;;;;;;5010859;28;20072;-56
2021/09/16 01:23:48;;;;;;;10.00;1.38;;;16.10;99.90;;;;;;5009855;28;20026;-56
2021/09/16 01:26:14;;;;;;;11.55;1.65;;;16.10;99.90;;;;;;5011650;28;20030;-59
2021/09/16 01:28:39;;;;;;;7.95;1.60;;;16.10;99.90;;;;;;5014590;28;20028;-59
2021/09/16 01:31:05;;;;;;;5.13;1.25;;;16.10;99.90;;;;;;5015018;28;20041;-58
2021/09/16 01:33:30;;;;;;;5.90;1.50;;;16.10;99.90;;;;;;5034384;23;20076;-61
2021/09/16 01:35:56;;;;;;;13.75;1.58;;;16.10;99.90;;;;;;5028102;28;20415;-62
2021/09/16 01:38:22;;;;;;;5.32;1.38;;;16.20;99.90;;;;;;5030142;28;20040;-62
2021/09/16 01:40:47;;;;;;;5.38;1.30;;;16.20;99.90;;;;;;5032559;28;20037;-62
2021/09/16 01:43:14;;;;;;;5.70;1.92;;;16.20;99.90;;;;;;5032263;28;20036;-62
2021/09/16 01:45:40;;;;;;;7.70;1.50;;;16.10;99.90;;;;;;5011948;28;20026;-62
2021/09/16 01:48:05;;;;;;;12.15;1.67;;;16.20;99.90;;;;;;5012652;28;20512;-62
2021/09/16 01:50:31;;;;;;;5.97;1.65;;;16.20;99.90;;;;;;5013130;28;20106;-62
2021/09/16 01:52:57;;;;;;;8.32;1.75;;;16.10;99.90;;;;;;5012244;28;20490;-62
2021/09/16 01:55:23;;;;;;;5.07;1.10;;;16.10;99.90;;;;;;5012654;28;20025;-61
2021/09/16 01:57:49;;;;;;;8.48;1.67;;;16.20;99.90;;;;;;5012477;28;20044;-61
2021/09/16 02:00:15;;;;;;;8.57;1.70;;;16.10;99.90;;;;;;5011414;28;20478;-61
2021/09/16 02:02:41;;;;;;;6.97;1.65;;;16.00;99.90;;;;;;5011963;28;20034;-62
2021/09/16 02:05:08;;;;;;;9.85;1.52;;;16.10;99.90;;;;;;5010680;28;20026;-62
2021/09/16 02:07:33;;;;;;;11.63;1.67;;;16.00;99.90;;;;;;5004609;28;20449;-62
2021/09/16 02:09:59;;;;;;;10.48;1.50;;;16.00;99.90;;;;;;5011910;28;20038;-61
2021/09/16 02:12:25;;;;;;;8.23;1.45;;;15.90;99.90;;;;;;5005711;28;20037;-62
2021/09/16 02:14:50;;;;;;;6.18;1.58;;;15.80;99.90;;;;;;5011721;28;20037;-62
2021/09/16 02:17:16;;;;;;;6.70;1.48;;;15.80;99.90;;;;;;5004210;28;20032;-62
2021/09/16 02:19:41;;;;;;;7.47;2.05;;;15.70;99.90;;;;;;5005939;28;20109;-62
2021/09/16 02:22:07;;;;;;;7.20;1.27;;;15.70;99.90;;;;;;5005234;28;20045;-62
2021/09/16 02:24:33;;;;;;;10.05;1.40;;;15.70;99.90;;;;;;4999697;28;20034;-62
2021/09/16 02:26:58;;;;;;;4.93;1.48;;;15.70;99.90;;;;;;5005264;28;20035;-62
2021/09/16 02:29:24;;;;;;;9.85;1.77;;;15.60;99.90;;;;;;4997245;28;20367;-62
2021/09/16 02:31:49;;;;;;;9.65;1.55;;;15.60;99.90;;;;;;5002296;28;20057;-62
2021/09/16 02:34:15;;;;;;;4.63;1.13;;;15.50;99.90;;;;;;5002072;28;20042;-62
2021/09/16 02:36:41;;;;;;;6.97;1.58;;;15.40;99.90;;;;;;5000628;28;20496;-62
2021/09/16 02:39:06;;;;;;;5.15;1.38;;;15.40;99.90;;;;;;5001336;28;20486;-61
2021/09/16 02:41:32;;;;;;;8.07;1.70;;;15.20;99.90;;;;;;5011964;28;20033;-61
2021/09/16 02:43:57;;;;;;;6.43;1.92;;;15.10;99.90;;;;;;4994685;28;20038;-61
2021/09/16 02:46:23;;;;;;;9.98;2.00;;;15.00;99.90;;;;;;5000658;28;20113;-61
2021/09/16 02:48:49;;;;;;;9.20;2.15;;;14.80;99.90;;;;;;5007923;28;20033;-61
2021/09/16 02:51:15;;;;;;;6.50;1.58;;;14.70;99.90;;;;;;5008881;28;20096;-61
2021/09/16 02:53:41;;;;;;;13.68;2.30;;;14.60;99.90;;;;;;5003687;28;20064;-62
2021/09/16 02:56:06;;;;;;;10.75;2.42;;;14.60;99.90;;;;;;5004582;28;20544;-62
2021/09/16 02:58:32;;;;;;;9.05;1.92;;;14.50;99.90;;;;;;5002778;28;20520;-62
2021/09/16 03:00:58;;;;;;;10.05;1.98;;;14.50;99.90;;;;;;5008633;28;20129;-61
2021/09/16 03:03:23;;;;;;;10.07;1.98;;;14.40;99.90;;;;;;5001836;28;20026;-60
2021/09/16 03:05:49;;;;;;;9.85;2.05;;;14.40;99.90;;;;;;5003636;28;20148;-62
2021/09/16 03:08:15;;;;;;;11.30;2.35;;;14.40;99.90;;;;;;5003068;28;20029;-61
2021/09/16 03:10:40;;;;;;;11.52;2.15;;;14.40;99.90;;;;;;5006482;28;20034;-61
2021/09/16 03:13:06;;;;;;;5.63;1.95;;;14.40;99.90;;;;;;5007594;28;20042;-61
2021/09/16 03:15:32;;;;;;;6.47;2.33;;;14.50;99.90;;;;;;4999560;28;20030;-61
2021/09/16 03:17:57;;;;;;;13.77;2.45;;;14.50;99.90;;;;;;5005791;28;20171;-61
2021/09/16 03:20:24;;;;;;;10.98;2.40;;;14.50;99.90;;;;;;5000423;28;20029;-62
2021/09/16 03:22:49;;;;;;;9.48;2.20;;;14.50;99.90;;;;;;4998275;28;20337;-61
2021/09/16 03:25:15;;;;;;;15.05;2.72;;;14.50;99.90;;;;;;5003391;28;20040;-62
2021/09/16 03:27:41;;;;;;;9.30;2.17;;;14.30;99.90;;;;;;4999364;28;20033;-62
2021/09/16 03:30:11;;;;;;;11.30;2.60;;;14.30;99.90;;;;;;4996005;28;20034;-63
2021/09/16 03:32:37;;;;;;;11.75;2.60;;;14.20;99.90;;;;;;4997266;28;20030;-61
2021/09/16 03:35:03;;;;;;;8.60;2.63;;;14.10;99.90;;;;;;5002596;28;20048;-62
2021/09/16 03:37:29;;;;;;;14.10;2.78;;;14.10;99.90;;;;;;5002664;28;20038;-62
2021/09/16 03:39:54;;;;;;;6.43;2.60;;;14.10;99.90;;;;;;4999425;28;20105;-62
2021/09/16 03:42:20;;;;;;;16.38;2.78;;;14.00;99.90;;;;;;4999863;28;20030;-62
2021/09/16 03:44:46;;;;;;;7.32;2.60;;;13.90;99.90;;;;;;4999857;28;20037;-62
2021/09/16 03:47:11;;;;;;;15.02;2.85;;;13.80;99.90;;;;;;5001910;28;20041;-62
2021/09/16 03:49:40;;;;;;;10.05;2.83;;;13.70;99.90;;;;;;5004150;28;20045;-62
2021/09/16 03:52:08;;;;;;;11.13;2.90;;;13.70;99.90;;;;;;5004783;28;20045;-61
2021/09/16 03:54:34;;;;;;;12.18;3.00;;;13.60;99.90;;;;;;4999435;28;20026;-61
2021/09/16 03:57:00;;;;;;;18.38;4.18;;;13.60;99.90;;;;;;4998645;28;20030;-62
2021/09/16 03:59:26;;;;;;;13.77;2.90;;;13.70;99.90;;;;;;5000887;28;20426;-61
2021/09/16 04:01:51;;;;;;;11.45;5.95;;;13.70;99.90;;;;;;5002920;28;20504;-61
2021/09/16 04:04:17;;;;;;;15.50;5.70;;;13.80;99.90;;;;;;4997194;28;20036;-62
2021/09/16 04:06:42;;;;;;;16.88;6.82;;;13.80;99.90;;;;;;5003487;28;20049;-62
2021/09/16 04:09:08;;;;;;;25.15;6.30;;;13.90;99.90;;;;;;5001923;28;20030;-62
2021/09/16 04:11:33;;;;;;;21.27;6.40;;;14.00;99.90;;;;;;4998100;28;20030;-62
2021/09/16 04:13:59;;;;;;;18.17;6.47;;;14.00;99.90;;;;;;4997172;28;20038;-61
2021/09/16 04:16:24;;;;;;;16.23;6.10;;;14.10;99.90;;;;;;5004421;28;20677;-62
2021/09/16 04:18:50;;;;;;;19.00;7.35;;;14.10;99.90;;;;;;5007798;28;20485;-61
2021/09/16 04:21:15;;;;;;;21.30;7.18;;;14.10;99.90;;;;;;5001922;28;20043;-61
2021/09/16 04:23:41;;;;;;;26.65;8.75;;;14.10;99.90;;;;;;5000426;28;20034;-61
2021/09/16 04:26:06;;;;;;;15.98;7.13;;;14.10;99.90;;;;;;5001313;28;20065;-61
2021/09/16 04:28:32;;;;;;;13.57;6.75;;;14.10;99.90;;;;;;4999196;28;20034;-61
2021/09/16 04:30:57;;;;;;;20.00;8.18;;;14.00;99.90;;;;;;4996629;28;20030;-60
2021/09/16 04:33:23;;;;;;;15.65;7.32;;;14.00;99.90;;;;;;5000382;28;20034;-61
2021/09/16 04:35:48;;;;;;;17.85;7.13;;;14.10;99.90;;;;;;4997392;28;20120;-61
2021/09/16 04:38:15;;;;;;;20.58;7.50;;;14.10;99.90;;;;;;4999492;28;20059;-62
2021/09/16 04:40:42;;;;;;;20.27;8.13;;;14.10;99.90;;;;;;5002423;28;20028;-61
2021/09/16 04:43:07;;;;;;;20.52;7.30;;;14.10;99.90;;;;;;4997865;28;20386;-61
2021/09/16 04:45:33;;;;;;;18.05;8.40;;;14.10;99.90;;;;;;4996077;28;20034;-61
2021/09/16 04:47:59;;;;;;;25.70;8.20;;;14.20;99.90;;;;;;5004532;28;20052;-62
2021/09/16 04:50:24;;;;;;;21.02;8.07;;;14.20;99.90;;;;;;5002171;28;20366;-61
2021/09/16 04:52:50;;;;;;;19.95;8.02;;;14.30;99.90;;;;;;4999760;28;20041;-61
2021/09/16 04:55:15;;;;;;;19.48;9.07;;;14.20;99.90;;;;;;4996610;28;20033;-61
2021/09/16 04:57:41;;;;;;;18.98;8.32;;;14.20;99.90;;;;;;5000721;28;20032;-62
2021/09/16 05:00:08;;;;;;;17.60;7.10;;;14.20;99.90;;;;;;4997598;28;20025;-62
2021/09/16 05:02:33;;;;;;;21.05;8.60;;;14.10;99.90;;;;;;5009416;28;20018;-61
2021/09/16 05:04:59;;;;;;;28.13;9.15;;;14.10;99.90;;;;;;5000808;28;20022;-61
2021/09/16 05:07:24;;;;;;;19.27;7.60;;;14.10;99.90;;;;;;5003063;28;20026;-61
2021/09/16 05:09:50;;;;;;;25.90;9.02;;;14.00;99.90;;;;;;5006041;28;20042;-60
2021/09/16 05:12:16;;;;;;;34.00;10.23;;;14.00;99.90;;;;;;4982905;28;20033;-60
2021/09/16 05:14:41;;;;;;;28.10;9.98;;;14.00;99.90;;;;;;5011338;28;20831;-61
2021/09/16 05:17:07;;;;;;;22.17;10.13;;;14.00;99.90;;;;;;5001372;28;20138;-60
2021/09/16 05:19:32;;;;;;;27.35;9.05;;;13.90;99.90;;;;;;5007443;28;20060;-62
2021/09/16 05:21:58;;;;;;;22.90;9.73;;;13.90;99.90;;;;;;4999949;28;20046;-60
2021/09/16 05:24:24;;;;;;;22.02;8.77;;;13.80;99.90;;;;;;5005729;28;20022;-62
2021/09/16 05:26:49;;;;;;;22.75;10.23;;;13.80;99.90;;;;;;5005611;28;20397;-62
2021/09/16 05:29:15;;;;;;;20.10;8.95;;;13.90;99.90;;;;;;5005182;28;20593;-61
2021/09/16 05:31:41;;;;;;;21.52;7.97;;;13.90;99.90;;;;;;5004860;28;20033;-62
2021/09/16 05:34:06;;;;;;;18.30;8.02;;;13.90;99.90;;;;;;4999912;28;20034;-63
2021/09/16 05:36:32;;;;;;;17.08;8.40;;;14.00;99.90;;;;;;5004500;28;20217;-63
2021/09/16 05:38:57;;;;;;;20.80;8.30;;;14.00;99.90;;;;;;5005802;28;20056;-62
2021/09/16 05:41:23;;;;;;;17.98;8.18;;;13.90;99.90;;;;;;5006919;28;20022;-62
2021/09/16 05:43:49;;;;;;;17.95;8.05;;;14.00;99.90;;;;;;5008632;28;20036;-62
2021/09/16 05:46:15;;;;;;;21.42;8.05;;;14.00;99.90;;;;;;5005461;28;20036;-62
2021/09/16 05:48:41;;;;;;;22.40;7.80;;;14.00;99.90;;;;;;5003236;28;20038;-62
2021/09/16 05:51:06;;;;;;;22.73;8.23;;;13.90;99.90;;;;;;4982504;28;20494;-60
2021/09/16 05:53:32;;;;;;;23.65;9.38;;;13.90;99.90;;;;;;5005242;28;20034;-62
2021/09/16 05:55:57;;;;;;;20.15;8.05;;;13.90;99.90;;;;;;5012360;28;20034;-62
2021/09/16 05:58:23;;;;;;;22.60;8.57;;;13.90;99.90;;;;;;4998883;28;20128;-62
2021/09/16 06:00:49;;;;;;;22.75;8.43;;;13.90;99.90;;;;;;5002673;28;20542;-62
2021/09/16 06:03:14;;;;;;;25.90;9.50;;;13.90;99.90;;;;;;4999027;28;20027;-62
2021/09/16 06:05:40;;;;;;;30.73;9.07;;;13.90;99.90;;;;;;4999274;28;20030;-62
2021/09/16 06:08:07;;;;;;;21.75;8.70;;;13.90;99.90;;;;;;5000556;28;20049;-62
2021/09/16 06:10:32;;;;;;;25.73;9.02;;;14.00;99.90;;;;;;5000132;28;20424;-62
2021/09/16 06:12:58;;;;;;;19.77;9.13;;;14.00;99.90;;;;;;5001545;28;20503;-62
2021/09/16 06:15:24;;;;;;;18.38;7.97;;;14.10;99.90;;;;;;4994922;28;20027;-62
2021/09/16 06:17:50;;;;;;;23.05;8.13;;;14.10;99.90;;;;;;4998590;28;20117;-62
2021/09/16 06:20:15;;;;;;;24.20;7.45;;;14.20;99.90;;;;;;4993665;28;20558;-62
2021/09/16 06:22:45;;;;;;;18.35;7.38;;;14.30;99.90;;;;;;4997616;28;20066;-62
2021/09/16 06:25:12;;;;;;;24.63;7.97;;;14.30;99.90;;;;;;4995387;28;20022;-62
2021/09/16 06:27:37;;;;;;;13.75;6.80;;;14.40;99.90;;;;;;4995508;28;20042;-62
2021/09/16 06:30:04;;;;;;;29.35;7.90;;;14.40;99.90;;;;;;4995506;28;20027;-62
2021/09/16 06:32:29;;;;;;;16.83;7.18;;;14.50;99.90;;;;;;4995058;28;20022;-62
2021/09/16 06:34:55;;;;;;;24.45;7.05;;;14.60;99.90;;;;;;5004825;28;20096;-62
2021/09/16 06:37:20;;;;;;;20.42;5.65;;;14.80;99.90;;;;;;5008317;28;20030;-62
2021/09/16 06:39:47;;;;;;;24.60;7.82;;;14.90;99.90;;;;;;5011794;28;20033;-62
2021/09/16 06:42:12;;;;;;;14.93;5.57;;;15.00;99.90;;;;;;5010207;28;20018;-63
2021/09/16 06:44:38;;;;;;;15.05;5.85;;;15.10;99.90;;;;;;4994452;28;20026;-62
2021/09/16 06:47:04;;;;;;;20.50;5.95;;;15.20;99.90;;;;;;5005702;28;20105;-62
2021/09/16 06:49:29;;;;;;;15.52;5.30;;;15.30;99.90;;;;;;5002901;28;20025;-62
2021/09/16 06:51:56;;;;;;;14.57;4.80;;;15.30;99.90;;;;;;5003323;28;20027;-62
2021/09/16 06:54:21;;;;;;;13.82;4.60;;;15.40;99.90;;;;;;5002537;28;20049;-62
2021/09/16 06:56:47;;;;;;;16.15;4.45;;;15.40;99.90;;;;;;5008393;28;20034;-62
2021/09/16 06:59:12;;;;;;;20.38;5.95;;;15.40;99.90;;;;;;5002295;28;20032;-62
2021/09/16 07:01:38;;;;;;;12.32;4.53;;;15.30;99.90;;;;;;5002971;28;20029;-62
2021/09/16 07:04:04;;;;;;;21.15;4.97;;;15.30;99.90;;;;;;5002172;28;20109;-62
2021/09/16 07:06:29;;;;;;;17.40;5.78;;;15.30;99.90;;;;;;5000366;28;20038;-61
2021/09/16 07:08:55;;;;;;;20.00;5.05;;;15.40;99.90;;;;;;4997794;28;20061;-62
2021/09/16 07:11:20;;;;;;;17.20;4.40;;;15.40;99.90;;;;;;4995372;28;20058;-62
2021/09/16 07:13:46;;;;;;;11.40;4.95;;;15.50;99.90;;;;;;4991944;28;20034;-62
2021/09/16 07:16:12;;;;;;;16.13;5.38;;;15.60;99.90;;;;;;5000688;28;20026;-62
2021/09/16 07:18:37;;;;;;;15.90;4.93;;;15.60;99.90;;;;;;5000822;28;20061;-62
2021/09/16 07:21:03;;;;;;;16.83;6.15;;;15.60;99.90;;;;;;5001706;28;20123;-62
2021/09/16 07:23:29;;;;;;;16.20;6.20;;;15.60;99.90;;;;;;4996390;28;20114;-62
2021/09/16 07:25:54;;;;;;;17.00;7.03;;;15.60;99.90;;;;;;4975688;28;20030;-62
2021/09/16 07:28:20;;;;;;;17.38;6.63;;;15.50;99.90;;;;;;4995826;28;20022;-63
2021/09/16 07:30:46;;;;;;;20.58;7.40;;;15.40;99.90;;;;;;5003790;28;20482;-62
2021/09/16 07:33:12;;;;;;;23.85;7.55;;;15.30;99.90;;;;;;5004486;28;20548;-63
2021/09/16 07:35:37;;;;;;;18.58;7.57;;;15.30;99.90;;;;;;5021668;23;20042;-59
2021/09/16 07:38:03;;;;;;;28.58;7.70;;;15.30;99.90;;;;;;4994981;28;20034;-57
2021/09/16 07:40:29;;;;;;;23.92;8.05;;;15.30;99.90;;;;;;4992069;28;20022;-58
2021/09/16 07:42:54;;;;;;;23.35;8.48;;;15.40;99.90;;;;;;4991266;28;20421;-61
2021/09/16 07:45:20;;;;;;;25.85;8.75;;;15.50;99.90;;;;;;5004852;28;20536;-59
2021/09/16 07:47:45;;;;;;;19.42;9.10;;;15.60;99.90;;;;;;4998623;28;20088;-58
2021/09/16 07:50:11;;;;;;;15.13;7.43;;;15.70;99.90;;;;;;5003584;28;20555;-59
2021/09/16 07:52:37;;;;;;;19.77;9.10;;;15.90;99.90;;;;;;5005406;28;20022;-56
2021/09/16 07:55:03;;;;;;;17.48;7.53;;;15.90;99.90;;;;;;5000894;28;20409;-59
2021/09/16 07:57:29;;;;;;;16.70;7.53;;;16.10;99.90;;;;;;4991844;28;20113;-61
2021/09/16 07:59:54;;;;;;;23.75;8.15;;;16.10;99.90;;;;;;5000569;28;20168;-58
2021/09/16 08:02:20;;;;;;;23.02;8.60;;;16.20;99.90;;;;;;4996300;28;20026;-59
2021/09/16 08:04:45;;;;;;;23.48;8.63;;;16.30;99.90;;;;;;5009425;28;20029;-60
2021/09/16 08:07:11;;;;;;;11.77;7.40;;;16.30;99.90;;;;;;5000757;28;20109;-61
2021/09/16 08:09:36;;;;;;;16.98;7.80;;;16.40;99.90;;;;;;5003492;28;20125;-59
2021/09/16 08:12:03;;;;;;;14.38;7.50;;;16.40;99.90;;;;;;4991587;28;20101;-58
2021/09/16 08:14:30;;;;;;;16.77;7.60;;;16.50;99.90;;;;;;5007342;28;20040;-56
2021/09/16 08:16:57;;;;;;;18.58;8.43;;;16.50;99.90;;;;;;4992052;28;20109;-61
2021/09/16 08:19:22;;;;;;;20.42;8.77;;;16.50;99.90;;;;;;4999120;28;20030;-57
2021/09/16 08:21:48;;;;;;;19.08;8.00;;;16.50;99.90;;;;;;5004424;28;20031;-59
2021/09/16 08:24:13;;;;;;;19.25;7.85;;;16.50;99.90;;;;;;4997395;28;20030;-58
2021/09/16 08:26:39;;;;;;;18.75;7.55;;;16.60;99.90;;;;;;4998190;28;20474;-59
2021/09/16 08:29:04;;;;;;;18.75;6.88;;;16.70;99.90;;;;;;4994992;28;20061;-57
2021/09/16 08:31:30;;;;;;;18.83;6.95;;;16.80;99.90;;;;;;5006234;28;20038;-60
2021/09/16 08:33:56;;;;;;;16.70;6.78;;;16.90;99.90;;;;;;4995620;28;20088;-56
2021/09/16 08:36:21;;;;;;;16.17;7.65;;;17.00;99.90;;;;;;4992945;28;20026;-59
2021/09/16 08:38:47;;;;;;;15.50;7.22;;;17.10;99.90;;;;;;4995428;28;20031;-59
2021/09/16 08:41:12;;;;;;;14.07;5.95;;;17.10;99.90;;;;;;4990879;28;20500;-60
2021/09/16 08:43:39;;;;;;;14.65;6.00;;;17.10;99.90;;;;;;4997063;28;20064;-59
2021/09/16 08:46:05;;;;;;;8.45;4.25;;;17.20;99.90;;;;;;4999910;28;20137;-61
2021/09/16 08:48:31;;;;;;;11.60;4.35;;;17.20;99.90;;;;;;4995042;28;20748;-61
2021/09/16 08:50:57;;;;;;;9.13;4.10;;;17.20;99.90;;;;;;5009579;28;20034;-59
2021/09/16 08:53:25;;;;;;;13.60;5.35;;;17.20;99.90;;;;;;4999207;28;20121;-62
2021/09/16 08:55:52;;;;;;;16.33;4.65;;;17.20;99.90;;;;;;4991097;28;20042;-60
2021/09/16 08:58:19;;;;;;;7.55;3.58;;;17.30;99.90;;;;;;4999711;28;20421;-61
2021/09/16 09:00:46;;;;;;;15.88;5.05;;;17.30;99.90;;;;;;5005999;28;20027;-62
2021/09/16 09:03:12;;;;;;;12.82;4.45;;;17.30;99.90;;;;;;5011005;28;20401;-61
2021/09/16 09:05:40;;;;;;;13.82;4.68;;;17.40;99.90;;;;;;5002944;28;20024;-59
2021/09/16 09:08:05;;;;;;;10.13;4.60;;;17.50;99.90;;;;;;4995395;28;20030;-60
2021/09/16 09:10:38;;;;;;;10.27;3.97;;;17.60;99.90;;;;;;5003268;28;20033;-60
2021/09/16 09:13:20;;;;;;;11.15;4.03;;;17.80;99.90;;;;;;5007788;28;20118;-58
2021/09/16 09:15:57;;;;;;;7.00;3.53;;;18.00;99.90;;;;;;4995202;28;20030;-62
2021/09/16 09:18:23;;;;;;;7.35;3.92;;;18.10;99.90;;;;;;5002615;28;20041;-62
2021/09/16 09:21:07;;;;;;;6.80;4.35;;;18.10;99.90;;;;;;4990844;28;20466;-59
2021/09/16 09:23:34;;;;;;;10.88;5.13;;;18.00;99.90;;;;;;4998254;28;20018;-59
2021/09/16 09:26:19;;;;;;;7.65;3.47;;;17.90;99.90;;;;;;4990611;28;20038;-59
2021/09/16 09:28:44;;;;;;;14.10;3.83;;;18.00;99.90;;;;;;4996930;28;20496;-60
2021/09/16 09:31:19;;;;;;;11.32;3.63;;;18.00;99.90;;;;;;5004538;28;20038;-60
2021/09/16 09:33:45;;;;;;;6.55;3.50;;;18.10;99.90;;;;;;4990294;28;20185;-58
2021/09/16 09:36:14;;;;;;;11.27;4.75;;;18.10;99.90;;;;;;4994698;28;20109;-59
2021/09/16 09:38:58;;;;;;;9.63;5.18;;;18.10;99.90;;;;;;5000721;28;20485;-57
2021/09/16 09:41:30;;;;;;;8.23;3.65;;;18.20;99.90;;;;;;5009194;28;20022;-61
2021/09/16 09:44:13;;;;;;;8.02;3.65;;;18.50;99.90;;;;;;5004506;28;20038;-62
2021/09/16 09:46:42;;;;;;;11.35;3.40;;;18.60;99.90;;;;;;4993658;28;20032;-60
2021/09/16 09:49:10;;;;;;;7.35;3.35;;;18.90;99.90;;;;;;5003737;28;20513;-61
2021/09/16 09:51:49;;;;;;;8.02;3.58;;;19.00;99.90;;;;;;5001092;28;20468;-61
2021/09/16 09:54:31;;;;;;;7.35;3.55;;;18.90;99.90;;;;;;5002086;28;20030;-59
2021/09/16 09:57:18;;;;;;;8.77;2.88;;;18.80;99.90;;;;;;4995127;28;20433;-61
2021/09/16 09:59:53;;;;;;;7.50;3.08;;;18.70;99.90;;;;;;4993484;28;20058;-62
2021/09/16 10:02:19;;;;;;;8.00;3.63;;;18.60;99.90;;;;;;4994604;28;20129;-59
2021/09/16 10:04:46;;;;;;;9.35;3.50;;;18.80;99.90;;;;;;4993945;28;20030;-61
2021/09/16 10:07:31;;;;;;;5.55;3.53;;;18.80;99.90;;;;;;5003472;28;20389;-58
2021/09/16 10:09:58;;;;;;;5.32;2.80;;;18.70;99.90;;;;;;4994053;28;20050;-59
2021/09/16 10:12:24;;;;;;;6.55;3.00;;;18.60;99.90;;;;;;4996552;28;20489;-61
2021/09/16 10:14:50;;;;;;;4.47;2.83;;;18.50;99.90;;;;;;4996522;28;20065;-59
2021/09/16 10:17:16;;;;;;;5.90;2.25;;;18.60;99.90;;;;;;4995182;28;20066;-60
2021/09/16 10:19:42;;;;;;;8.98;3.72;;;18.70;99.90;;;;;;4998445;28;20021;-59
2021/09/16 10:22:09;;;;;;;5.78;3.17;;;18.70;99.90;;;;;;4999031;28;20386;-62
2021/09/16 10:24:35;;;;;;;6.78;3.10;;;18.80;99.90;;;;;;4997976;28;20386;-60
2021/09/16 10:27:00;;;;;;;10.38;3.10;;;19.00;99.90;;;;;;5003398;28;20030;-58
2021/09/16 10:29:29;;;;;;;4.35;1.95;;;19.20;99.90;;;;;;5003890;28;20036;-59
2021/09/16 10:32:06;;;;;;;7.72;1.80;;;19.40;99.90;;;;;;4993702;28;20490;-54
2021/09/16 10:34:43;;;;;;;3.75;2.00;;;19.40;99.90;;;;;;4995033;28;20050;-63
2021/09/16 10:37:13;;;;;;;6.95;2.70;;;19.40;99.90;;;;;;4997355;28;20035;-59
2021/09/16 10:39:42;;;;;;;10.57;2.40;;;19.40;99.90;;;;;;4999366;28;20053;-59
2021/09/16 10:42:08;;;;;;;5.30;2.03;;;19.70;99.90;;;;;;5002165;28;20046;-58
2021/09/16 10:44:34;;;;;;;3.92;1.75;;;19.80;99.90;;;;;;5002192;28;20038;-57
2021/09/16 10:47:29;;;;;;;7.63;1.65;;;19.70;99.90;;;;;;5011726;28;20025;-57
2021/09/16 10:49:54;;;;;;;3.00;1.80;;;19.70;99.90;;;;;;5007845;28;20453;-57
2021/09/16 10:52:22;;;;;;;3.33;1.45;;;19.80;99.90;;;;;;5011541;28;20113;-54
2021/09/16 10:54:55;;;;;;;5.32;1.73;;;19.80;99.90;;;;;;5003551;28;20744;-61
2021/09/16 10:57:29;;;;;;;11.20;2.08;;;20.10;99.90;;;;;;4995822;28;20041;-61
2021/09/16 10:59:54;;;;;;;5.13;1.73;;;20.40;99.90;;;;;;4992313;28;20026;-57
2021/09/16 11:02:21;;;;;;;5.68;2.38;;;20.40;99.90;;;;;;4992923;28;20446;-58
2021/09/16 11:04:56;;;;;;;6.25;2.13;;;20.40;99.90;;;;;;4998725;28;20497;-58
2021/09/16 11:07:35;;;;;;;6.20;2.58;;;20.60;99.90;;;;;;5001397;28;20104;-60
2021/09/16 11:10:16;;;;;;;5.05;2.00;;;20.80;99.90;;;;;;4996188;28;20041;-61
2021/09/16 11:12:55;;;;;;;5.00;2.17;;;21.00;99.90;;;;;;4996959;28;20529;-62
2021/09/16 11:15:26;;;;;;;5.70;1.80;;;21.10;99.90;;;;;;4992630;28;20505;-61
2021/09/16 11:18:03;;;;;;;6.30;1.85;;;20.60;99.90;;;;;;4992751;28;20091;-58
2021/09/16 11:20:29;;;;;;;4.38;2.03;;;20.40;99.90;;;;;;4992257;28;20127;-61
2021/09/16 11:22:54;;;;;;;5.82;2.40;;;20.20;99.90;;;;;;4997018;28;20030;-59
2021/09/16 11:25:20;;;;;;;3.03;2.17;;;20.10;99.90;;;;;;4992775;28;20034;-61
2021/09/16 11:27:46;;;;;;;6.03;2.53;;;19.70;99.90;;;;;;4994023;28;20026;-59
2021/09/16 11:30:16;;;;;;;8.68;2.70;;;19.50;99.90;;;;;;4992069;28;20034;-60
2021/09/16 11:32:43;;;;;;;5.38;2.80;;;19.50;99.90;;;;;;4991863;28;20022;-60
2021/09/16 11:35:17;;;;;;;6.22;3.28;;;19.50;99.90;;;;;;4991872;28;20048;-60
2021/09/16 11:37:44;;;;;;;10.68;3.25;;;19.40;99.90;;;;;;5007490;28;20763;-56
2021/09/16 11:40:12;;;;;;;8.63;2.85;;;19.20;99.90;;;;;;5003908;28;20031;-58
2021/09/16 11:42:40;;;;;;;11.02;3.17;;;19.20;99.90;;;;;;5007638;28;20026;-58
2021/09/16 11:45:15;;;;;;;14.68;2.92;;;19.60;99.90;;;;;;5008389;28;20392;-57
2021/09/16 11:47:47;;;;;;;10.45;2.90;;;19.80;99.90;;;;;;4998618;28;20030;-56
2021/09/16 11:50:32;;;;;;;17.98;2.55;;;19.70;99.90;;;;;;5005391;28;20034;-57
2021/09/16 11:53:03;;;;;;;6.40;2.60;;;19.60;99.90;;;;;;4998237;28;20033;-61
2021/09/16 11:55:32;;;;;;;20.25;2.40;;;19.60;99.90;;;;;;4996122;28;20759;-60
2021/09/16 11:58:00;;;;;;;6.88;2.20;;;19.60;99.90;;;;;;4995132;28;20145;-60
2021/09/16 12:00:35;;;;;;;4.65;2.22;;;19.70;99.90;;;;;;5008840;28;20068;-62
2021/09/16 12:03:04;;;;;;;7.82;2.92;;;19.70;99.90;;;;;;5000756;28;20026;-60
2021/09/16 12:05:30;;;;;;;9.07;2.15;;;19.90;99.90;;;;;;5001285;28;20393;-61
2021/09/16 12:07:56;;;;;;;8.65;2.55;;;20.10;99.90;;;;;;5003584;28;20039;-56
2021/09/16 12:10:21;;;;;;;6.38;2.85;;;20.10;99.90;;;;;;4996273;28;20596;-60
2021/09/16 12:12:48;;;;;;;5.90;2.55;;;19.90;99.90;;;;;;4999499;28;20034;-62
2021/09/16 12:15:23;;;;;;;5.05;2.05;;;19.90;99.90;;;;;;4996649;28;20038;-60
2021/09/16 12:17:49;;;;;;;6.55;2.20;;;19.80;99.90;;;;;;4999364;28;20397;-62
2021/09/16 12:20:15;;;;;;;4.80;1.90;;;20.00;99.90;;;;;;5007692;28;20030;-60
2021/09/16 12:22:40;;;;;;;6.20;2.28;;;20.20;99.90;;;;;;4990661;28;20045;-59
2021/09/16 12:25:06;;;;;;;5.95;2.90;;;20.50;99.90;;;;;;4991299;28;20494;-57
2021/09/16 12:27:32;;;;;;;9.57;2.28;;;20.60;99.90;;;;;;4991280;28;20073;-54
2021/09/16 12:29:57;;;;;;;5.25;1.90;;;20.70;99.90;;;;;;4999381;28;20069;-59
2021/09/16 12:32:32;;;;;;;5.72;2.15;;;20.60;99.90;;;;;;4996321;28;20044;-60
2021/09/16 12:34:58;;;;;;;4.20;2.25;;;20.40;99.90;;;;;;5004876;28;20116;-60
2021/09/16 12:37:30;;;;;;;5.85;2.17;;;20.40;99.90;;;;;;5000560;28;20101;-61
2021/09/16 12:39:56;;;;;;;4.80;2.75;;;20.50;99.90;;;;;;4999487;28;20038;-61